Time;durP1;ratioP1;P1;durP2;ratioP2;P2;SDS_P1;SDS_P2;PMS_P1;PMS_P2;Temp;Humidity;BMP_temperature;BMP_pressure;BME280_temperature;BME280_humidity;BME280_pressure;Samples;Min_cycle;Max_cycle;Signal;HPM_P1;HPM_P2
2022/05/25 00:00:09;;;;;;;;;;;;;;;13.21;67.06;96614.63;30001;982;1882;-59
2022/05/25 00:00:40;;;;;;;;;;;;;;;13.21;66.12;96613.81;30001;982;1864;-59
2022/05/25 00:01:11;;;;;;;;;;;;;;;13.21;66.14;96614.63;30001;982;1873;-55
2022/05/25 00:01:42;;;;;;;;;;;;;;;13.20;66.07;96607.56;30001;982;1877;-60
2022/05/25 00:02:17;;;;;;;;;;;;;;;13.21;66.89;96617.34;30001;982;1882;-55
2022/05/25 00:02:48;;;;;;;;;;;;;;;13.20;66.58;96609.50;30001;982;1877;-59
2022/05/25 00:03:19;;;;;;;;;;;;;;;13.19;66.73;96610.59;30001;983;1881;-56
2022/05/25 00:03:50;;;;;;;;;;;;;;;13.18;66.57;96609.00;30001;983;1877;-59
2022/05/25 00:04:21;;;;;;;;;;;;;;;13.18;66.70;96603.56;30001;983;1881;-56
2022/05/25 00:04:52;;;;;;;;;;;;;;;13.17;66.53;96610.94;30001;983;1877;-59
2022/05/25 00:05:23;;;;;;;;;;;;;;;13.18;66.87;96614.44;30001;983;1881;-59
2022/05/25 00:05:54;;;;;;;;;;;;;;;13.16;66.42;96612.06;30001;983;1864;-59
2022/05/25 00:06:26;;;;;;;;;;;;;;;13.17;66.82;96613.66;30001;983;1873;-59
2022/05/25 00:06:57;;;;;;;;;;;;;;;13.16;66.44;96612.06;30001;983;1877;-59
2022/05/25 00:07:28;;;;;;;;;;;;;;;13.16;67.22;96612.06;30001;982;1882;-59
2022/05/25 00:08:00;;;;;;;;;;;;;;;13.15;66.50;96618.59;30001;982;1877;-59
2022/05/25 00:08:32;;;;;;;;;;;;;;;13.14;66.67;96614.28;30001;982;1882;-58
2022/05/25 00:09:03;;;;;;;;;;;;;;;13.15;66.29;96610.44;30001;982;1877;-59
2022/05/25 00:09:34;;;;;;;;;;;;;;;13.15;66.62;96613.16;30001;982;1882;-60
2022/05/25 00:10:05;;;;;;;;;;;;;;;13.14;65.95;96611.56;30001;982;1878;-60
2022/05/25 00:10:36;;;;;;;;;;;;;;;13.13;65.99;96612.66;30001;982;1869;-60
2022/05/25 00:11:08;;;;;;;;;;;;;;;13.13;66.21;96607.22;30001;983;1868;-60
2022/05/25 00:11:39;;;;;;;;;;;;;;;13.13;66.16;96609.94;30001;983;1881;-60
2022/05/25 00:12:10;;;;;;;;;;;;;;;13.14;65.95;96605.31;30001;983;1877;-59
2022/05/25 00:12:41;;;;;;;;;;;;;;;13.14;66.89;96608.81;30001;983;1881;-60
2022/05/25 00:13:12;;;;;;;;;;;;;;;13.13;66.93;96607.22;30001;983;1877;-59
2022/05/25 00:13:43;;;;;;;;;;;;;;;13.12;66.79;96604.81;30001;983;1881;-59
2022/05/25 00:14:14;;;;;;;;;;;;;;;13.12;66.44;96604.81;30001;983;1877;-59
2022/05/25 00:14:48;;;;;;;;;;;;;;;13.13;66.81;96607.22;30001;983;1882;-59
2022/05/25 00:15:18;;;;;;;;;;;;;;;13.13;66.32;96606.41;30001;982;1877;-60
2022/05/25 00:15:51;;;;;;;;;;;;;;;13.12;66.63;96602.09;30001;982;1869;-59
2022/05/25 00:16:21;;;;;;;;;;;;;;;13.11;66.72;96601.28;30001;982;1869;-60
2022/05/25 00:16:52;;;;;;;;;;;;;;;13.11;66.83;96598.56;30001;986;1882;-59
2022/05/25 00:17:23;;;;;;;;;;;;;;;13.10;66.22;96602.41;30001;982;1878;-60
2022/05/25 00:17:54;;;;;;;;;;;;;;;13.09;66.84;96601.59;30001;982;1882;-60
2022/05/25 00:18:25;;;;;;;;;;;;;;;13.10;66.31;96602.41;30001;983;1877;-59
2022/05/25 00:20:00;;;;;;;;;;;;;;;13.11;66.75;96608.66;30001;983;1877;-59
2022/05/25 00:20:30;;;;;;;;;;;;;;;13.09;67.03;96600.78;30001;983;1881;-59
2022/05/25 00:21:01;;;;;;;;;;;;;;;13.07;66.85;96601.13;30001;983;1864;-60
2022/05/25 00:21:32;;;;;;;;;;;;;;;13.08;66.85;96604.63;30001;983;1872;-60
2022/05/25 00:22:03;;;;;;;;;;;;;;;13.06;66.41;96601.44;30001;987;1869;-60
2022/05/25 00:22:45;;;;;;;;;;;;;;;13.03;66.55;96604.78;30001;982;1882;-60
2022/05/25 00:23:16;;;;;;;;;;;;;;;13.00;67.11;96599.97;30001;982;1877;-61
2022/05/25 00:23:47;;;;;;;;;;;;;;;12.99;67.32;96606.53;30001;982;1882;-59
2022/05/25 00:24:18;;;;;;;;;;;;;;;13.00;67.55;96602.69;30001;982;1878;-56
2022/05/25 00:24:49;;;;;;;;;;;;;;;13.00;67.32;96602.69;30001;982;1882;-60
2022/05/25 00:25:24;;;;;;;;;;;;;;;13.00;67.44;96605.41;30001;982;1878;-59
2022/05/25 00:25:57;;;;;;;;;;;;;;;12.97;67.24;96598.66;30001;983;1868;-59
2022/05/25 00:26:28;;;;;;;;;;;;;;;12.96;67.75;96607.94;30001;983;1868;-60
2022/05/25 00:26:59;;;;;;;;;;;;;;;12.95;67.63;96603.63;30001;983;1881;-60
2022/05/25 00:27:29;;;;;;;;;;;;;;;12.95;67.39;96600.09;30001;983;1877;-58
2022/05/25 00:28:02;;;;;;;;;;;;;;;12.95;67.38;96600.09;30001;983;1881;-60
2022/05/25 00:28:32;;;;;;;;;;;;;;;12.95;67.64;96602.81;30001;983;1877;-59
2022/05/25 00:29:04;;;;;;;;;;;;;;;12.96;67.48;96598.97;30001;983;1881;-60
2022/05/25 00:29:36;;;;;;;;;;;;;;;12.96;67.56;96601.69;30002;983;1877;-60
2022/05/25 00:30:09;;;;;;;;;;;;;;;12.95;67.74;96600.91;30002;982;1881;-59
2022/05/25 00:30:43;;;;;;;;;;;;;;;12.95;67.42;96605.53;30002;982;1877;-59
2022/05/25 00:31:14;;;;;;;;;;;;;;;12.95;67.17;96605.53;30002;982;1869;-60
2022/05/25 00:31:45;;;;;;;;;;;;;;;12.94;67.75;96596.56;30002;982;1869;-58
2022/05/25 00:32:16;;;;;;;;;;;;;;;12.93;67.69;96607.78;30002;982;1882;-58
2022/05/25 00:32:47;;;;;;;;;;;;;;;12.94;67.11;96603.94;30002;983;1877;-59
2022/05/25 00:33:20;;;;;;;;;;;;;;;12.93;67.37;96602.34;30002;983;1881;-58
2022/05/25 00:33:55;;;;;;;;;;;;;;;12.93;67.07;96603.13;30002;983;1877;-60
2022/05/25 00:34:26;;;;;;;;;;;;;;;12.95;67.41;96600.09;30002;962;1902;-59
2022/05/25 00:34:57;;;;;;;;;;;;;;;12.94;67.31;96606.66;30002;983;1877;-59
2022/05/25 00:35:29;;;;;;;;;;;;;;;12.94;67.46;96604.75;30002;983;1881;-59
2022/05/25 00:36:01;;;;;;;;;;;;;;;12.94;67.75;96603.94;30002;986;1869;-60
2022/05/25 00:36:32;;;;;;;;;;;;;;;12.92;67.31;96611.63;30002;983;1868;-59
2022/05/25 00:37:03;;;;;;;;;;;;;;;12.93;67.36;96607.78;30002;983;1869;-59
2022/05/25 00:37:34;;;;;;;;;;;;;;;12.92;67.89;96614.34;30002;983;1881;-59
2022/05/25 00:38:06;;;;;;;;;;;;;;;12.92;67.42;96608.91;30002;982;1877;-59
2022/05/25 00:38:37;;;;;;;;;;;;;;;12.91;67.78;96599.13;30002;982;1882;-60
2022/05/25 00:39:07;;;;;;;;;;;;;;;12.92;68.08;96606.16;30002;982;1878;-60
2022/05/25 00:39:40;;;;;;;;;;;;;;;12.92;67.97;96603.44;30002;982;1882;-60
2022/05/25 00:40:13;;;;;;;;;;;;;;;12.91;69.16;96599.13;30002;983;1876;-59
2022/05/25 00:40:45;;;;;;;;;;;;;;;12.90;68.21;96611.13;30002;983;1881;-60
2022/05/25 00:41:16;;;;;;;;;;;;;;;12.91;68.26;96610.00;30002;983;1877;-59
2022/05/25 00:41:49;;;;;;;;;;;;;;;12.91;68.53;96610.00;30002;986;1868;-58
2022/05/25 00:42:20;;;;;;;;;;;;;;;12.89;68.90;96613.03;30002;983;1868;-59
2022/05/25 00:42:51;;;;;;;;;;;;;;;12.89;68.73;96612.25;30002;983;1881;-59
2022/05/25 00:43:22;;;;;;;;;;;;;;;12.90;68.62;96616.56;30002;983;1877;-59
2022/05/25 00:43:53;;;;;;;;;;;;;;;12.90;68.52;96613.84;30002;957;1894;-59
2022/05/25 00:44:24;;;;;;;;;;;;;;;12.90;68.84;96616.56;30002;983;1868;-60
2022/05/25 00:44:54;;;;;;;;;;;;;;;12.89;69.12;96613.03;30002;983;1881;-60
2022/05/25 00:45:25;;;;;;;;;;;;;;;12.88;68.78;96611.44;30002;982;1795;-59
2022/05/25 00:45:59;;;;;;;;;;;;;;;12.89;68.70;96612.25;30002;982;1882;-59
2022/05/25 00:46:34;;;;;;;;;;;;;;;12.89;68.83;96617.69;30002;982;1864;-59
2022/05/25 00:47:06;;;;;;;;;;;;;;;12.87;68.90;96614.47;30002;982;1873;-61
2022/05/25 00:47:39;;;;;;;;;;;;;;;12.87;68.85;96618.00;30002;982;1877;-59
2022/05/25 00:48:15;;;;;;;;;;;;;;;12.87;68.47;96614.47;30002;983;1881;-59
2022/05/25 00:48:49;;;;;;;;;;;;;;;12.88;68.66;96616.87;30002;983;1863;-59
2022/05/25 00:49:27;;;;;;;;;;;;;;;12.88;69.06;96627.78;30002;983;1859;-59
2022/05/25 00:49:58;;;;;;;;;;;;;;;12.87;68.70;96619.91;30002;983;1877;-55
2022/05/25 00:51:11;;;;;;;;;;;;;;;12.87;69.14;96626.16;30002;983;1881;-60
2022/05/25 00:51:24;;;;;;;;;;;;;;;12.87;68.41;96625.37;30002;983;1877;-58
2022/05/25 00:52:06;;;;;;;;;;;;;;;12.88;68.42;96626.97;30002;983;1882;-59
2022/05/25 00:52:38;;;;;;;;;;;;;;;12.92;67.92;96622.50;30002;983;1877;-59
2022/05/25 00:53:10;;;;;;;;;;;;;;;12.93;67.82;96619.47;30002;982;1882;-59
2022/05/25 00:53:46;;;;;;;;;;;;;;;12.95;67.33;96627.34;30002;982;1878;-58
2022/05/25 00:54:22;;;;;;;;;;;;;;;12.95;67.57;96627.34;30002;982;1882;-60
2022/05/25 00:54:55;;;;;;;;;;;;;;;12.96;67.39;96612.59;30002;982;1864;-59
2022/05/25 00:55:28;;;;;;;;;;;;;;;12.97;67.17;96617.72;30002;983;1872;-58
2022/05/25 00:56:01;;;;;;;;;;;;;;;12.97;67.05;96620.44;30002;983;1877;-60
2022/05/25 00:56:33;;;;;;;;;;;;;;;12.97;67.02;96617.72;30002;983;1881;-59
2022/05/25 00:57:06;;;;;;;;;;;;;;;12.96;66.74;96623.50;30002;983;1877;-58
2022/05/25 00:57:39;;;;;;;;;;;;;;;12.98;67.10;96621.25;30002;983;1881;-58
2022/05/25 00:58:10;;;;;;;;;;;;;;;12.99;67.03;96628.31;30002;983;1877;-59
2022/05/25 00:58:43;;;;;;;;;;;;;;;12.99;67.33;96628.31;30002;983;1881;-58
2022/05/25 00:59:16;;;;;;;;;;;;;;;12.98;67.52;96622.06;30002;983;1877;-59
2022/05/25 01:00:13;;;;;;;;;;;;;;;12.97;68.20;96625.91;30002;982;1882;-60
2022/05/25 01:00:44;;;;;;;;;;;;;;;12.94;67.90;96625.72;30002;982;1860;-59
2022/05/25 01:01:15;;;;;;;;;;;;;;;12.95;67.52;96628.12;30002;982;1873;-59
2022/05/25 01:01:46;;;;;;;;;;;;;;;12.95;67.39;96621.88;30002;982;1878;-59
2022/05/25 01:02:20;;;;;;;;;;;;;;;12.94;67.81;96625.72;30002;982;1882;-58
2022/05/25 01:03:00;;;;;;;;;;;;;;;12.92;67.75;96628.75;30002;983;1863;-59
2022/05/25 01:03:32;;;;;;;;;;;;;;;12.92;67.81;96627.97;30002;983;1872;-59
2022/05/25 01:04:04;;;;;;;;;;;;;;;12.91;67.63;96631.78;30002;983;1877;-59
2022/05/25 01:04:36;;;;;;;;;;;;;;;12.89;68.09;96623.13;30002;983;1881;-59
2022/05/25 01:05:08;;;;;;;;;;;;;;;12.89;67.86;96632.09;30002;983;1864;-60
2022/05/25 01:05:44;;;;;;;;;;;;;;;12.88;67.99;96635.94;30002;983;1873;-59
2022/05/25 01:06:26;;;;;;;;;;;;;;;12.89;67.78;96634.03;30002;983;1864;-59
2022/05/25 01:07:28;;;;;;;;;;;;;;;12.89;68.08;96628.59;30002;982;1873;-59
2022/05/25 01:08:19;;;;;;;;;;;;;;;12.89;67.95;96631.31;30002;982;1860;-60
2022/05/25 01:09:07;;;;;;;;;;;;;;;12.89;68.23;96628.59;30002;982;1869;-59
2022/05/25 01:09:53;;;;;;;;;;;;;;;12.87;68.37;96630.81;30002;982;1877;-59
2022/05/25 01:10:39;;;;;;;;;;;;;;;12.84;68.67;96626.78;30002;983;1868;-60
2022/05/25 01:11:27;;;;;;;;;;;;;;;12.84;68.20;96636.88;30002;983;1868;-60
2022/05/25 01:12:18;;;;;;;;;;;;;;;12.84;68.33;96636.88;30002;983;1881;-59
2022/05/25 01:13:07;;;;;;;;;;;;;;;12.84;68.22;96631.44;30002;983;1873;-59
2022/05/25 01:13:43;;;;;;;;;;;;;;;12.83;68.21;96635.28;30002;983;1881;-59
2022/05/25 01:14:49;;;;;;;;;;;;;;;12.82;68.19;96636.41;30002;983;1877;-59
2022/05/25 01:15:26;;;;;;;;;;;;;;;12.80;68.43;96631.28;30002;982;1864;-59
2022/05/25 01:16:05;;;;;;;;;;;;;;;12.81;68.07;96632.09;30002;982;1868;-58
2022/05/25 01:17:10;;;;;;;;;;;;;;;12.82;67.38;96639.16;30002;982;1882;-59
2022/05/25 01:18:07;;;;;;;;;;;;;;;12.81;68.29;96634.81;30002;982;1860;-57
2022/05/25 01:19:03;;;;;;;;;;;;;;;12.78;68.37;96636.25;30002;983;1868;-59
2022/05/25 01:19:55;;;;;;;;;;;;;;;12.74;68.62;96641.50;30002;983;1873;-59
2022/05/25 01:20:43;;;;;;;;;;;;;;;12.76;67.60;96641.19;30002;983;1864;-55
2022/05/25 01:21:22;;;;;;;;;;;;;;;12.75;67.66;96643.09;30002;983;1869;-59
2022/05/25 01:22:14;;;;;;;;;;;;;;;12.75;67.80;96645.03;30001;983;1882;-60
2022/05/25 01:22:58;;;;;;;;;;;;;;;12.75;67.18;96640.37;30001;982;1877;-59
2022/05/25 01:23:52;;;;;;;;;;;;;;;12.75;67.08;96651.28;30001;982;1882;-60
2022/05/25 01:24:49;;;;;;;;;;;;;;;12.77;67.27;96644.72;30001;982;1873;-59
2022/05/25 01:25:42;;;;;;;;;;;;;;;12.71;66.78;96644.84;30002;983;1791;-59
2022/05/25 01:26:42;;;;;;;;;;;;;;;12.69;66.94;96647.06;30001;983;1859;-58
2022/05/25 01:27:26;;;;;;;;;;;;;;;12.68;67.45;96648.19;30001;983;1868;-59
2022/05/25 01:27:59;;;;;;;;;;;;;;;12.69;68.30;96652.53;30001;983;1877;-59
2022/05/25 01:28:48;;;;;;;;;;;;;;;12.65;67.06;96651.53;30001;983;1881;-60
2022/05/25 01:29:39;;;;;;;;;;;;;;;12.63;67.25;96653.75;30001;983;1869;-58
2022/05/25 01:30:30;;;;;;;;;;;;;;;12.65;67.00;96651.53;30001;982;1877;-59
2022/05/25 01:31:05;;;;;;;;;;;;;;;12.68;67.42;96653.63;30001;982;1873;-59
2022/05/25 01:31:59;;;;;;;;;;;;;;;12.68;67.48;96650.09;30001;982;1869;-59
2022/05/25 01:33:04;;;;;;;;;;;;;;;12.65;67.73;96654.25;30001;983;1850;-59
2022/05/25 01:33:42;;;;;;;;;;;;;;;12.66;67.48;96652.34;30001;983;1877;-59
2022/05/25 01:34:47;;;;;;;;;;;;;;;12.64;67.64;96641.75;30001;983;1877;-59
2022/05/25 01:35:41;;;;;;;;;;;;;;;12.62;67.55;96646.72;30001;983;1877;-59
2022/05/25 01:36:34;;;;;;;;;;;;;;;12.59;68.02;96647.34;30001;983;1873;-59
2022/05/25 01:37:09;;;;;;;;;;;;;;;12.59;67.41;96636.44;30001;983;1882;-59
2022/05/25 01:38:04;;;;;;;;;;;;;;;12.60;67.41;96646.22;30001;982;1864;-59
2022/05/25 01:38:49;;;;;;;;;;;;;;;12.60;67.18;96648.13;30001;982;1855;-60
2022/05/25 01:39:26;;;;;;;;;;;;;;;12.59;67.03;96641.09;30001;982;1877;-59
2022/05/25 01:40:02;;;;;;;;;;;;;;;12.58;66.69;96639.47;30001;983;1881;-59
2022/05/25 01:40:40;;;;;;;;;;;;;;;12.55;66.61;96643.62;30001;983;1877;-59
2022/05/25 01:41:22;;;;;;;;;;;;;;;12.55;66.80;96646.34;30001;983;1881;-59
2022/05/25 01:41:56;;;;;;;;;;;;;;;12.55;67.37;96640.91;30001;983;1877;-59
2022/05/25 01:42:33;;;;;;;;;;;;;;;12.55;67.46;96640.91;30001;983;1881;-58
2022/05/25 01:43:14;;;;;;;;;;;;;;;12.52;67.36;96638.78;30001;983;1877;-59
2022/05/25 01:43:49;;;;;;;;;;;;;;;12.51;67.35;96639.91;30001;983;1868;-59
2022/05/25 01:44:24;;;;;;;;;;;;;;;12.51;67.03;96639.91;30001;983;1869;-59
2022/05/25 01:44:58;;;;;;;;;;;;;;;12.51;67.14;96645.34;30001;982;1882;-59
2022/05/25 01:45:33;;;;;;;;;;;;;;;12.51;66.80;96644.56;30001;982;1877;-59
2022/05/25 01:46:08;;;;;;;;;;;;;;;12.50;66.96;96641.03;30001;982;1882;-60
2022/05/25 01:46:43;;;;;;;;;;;;;;;12.51;67.01;96642.63;30001;982;1877;-59
2022/05/25 01:47:14;;;;;;;;;;;;;;;12.51;66.96;96639.91;30001;983;1881;-58
2022/05/25 01:47:49;;;;;;;;;;;;;;;12.51;66.92;96641.81;30001;983;1877;-59
2022/05/25 01:48:22;;;;;;;;;;;;;;;12.50;68.04;96649.19;30001;983;1881;-59
2022/05/25 01:48:54;;;;;;;;;;;;;;;12.49;67.73;96647.59;30001;983;1864;-59
2022/05/25 01:49:29;;;;;;;;;;;;;;;12.49;67.41;96644.06;30001;983;1873;-59
2022/05/25 01:50:07;;;;;;;;;;;;;;;12.48;67.19;96650.59;30001;983;1871;-59
2022/05/25 01:50:44;;;;;;;;;;;;;;;12.47;67.33;96649.84;30001;983;1882;-59
2022/05/25 01:51:26;;;;;;;;;;;;;;;12.48;67.38;96651.41;30001;983;1877;-59
2022/05/25 01:52:00;;;;;;;;;;;;;;;12.46;67.63;96653.66;30001;983;1882;-59
2022/05/25 01:52:34;;;;;;;;;;;;;;;12.46;67.33;96652.88;30001;982;1877;-60
2022/05/25 01:53:09;;;;;;;;;;;;;;;12.43;68.19;96659.72;30001;982;1882;-59
2022/05/25 01:53:43;;;;;;;;;;;;;;;12.41;68.41;96656.50;30001;982;1878;-59
2022/05/25 01:54:16;;;;;;;;;;;;;;;12.41;68.67;96656.50;30001;982;1869;-58
2022/05/25 01:54:56;;;;;;;;;;;;;;;12.40;68.44;96650.28;30001;983;1868;-58
2022/05/25 01:55:29;;;;;;;;;;;;;;;12.43;68.39;96657.00;30001;983;1881;-60
2022/05/25 01:56:04;;;;;;;;;;;;;;;12.43;68.64;96653.50;30001;983;1877;-59
2022/05/25 01:56:38;;;;;;;;;;;;;;;12.43;67.89;96659.72;30001;983;1868;-55
2022/05/25 01:57:10;;;;;;;;;;;;;;;12.43;67.97;96657.00;30001;983;1868;-60
2022/05/25 01:57:44;;;;;;;;;;;;;;;12.44;68.16;96657.81;30001;983;1881;-59
2022/05/25 01:58:16;;;;;;;;;;;;;;;12.44;67.99;96650.47;30001;983;1877;-58
2022/05/25 01:58:53;;;;;;;;;;;;;;;12.45;68.53;96653.97;30001;983;1882;-59
2022/05/25 01:59:25;;;;;;;;;;;;;;;12.42;68.31;96652.69;30001;982;1877;-59
2022/05/25 01:59:56;;;;;;;;;;;;;;;12.42;68.42;96649.97;30001;982;1882;-60
2022/05/25 02:00:30;;;;;;;;;;;;;;;12.43;68.35;96654.28;30001;982;1877;-58
2022/05/25 02:01:00;;;;;;;;;;;;;;;12.43;67.47;96654.28;30001;982;1882;-59
2022/05/25 02:01:31;;;;;;;;;;;;;;;12.44;65.87;96653.19;30001;982;1877;-60
2022/05/25 02:04:32;;;;;;;;;;;;;;;12.44;66.54;96655.09;30001;983;1877;-59
2022/05/25 02:05:06;;;;;;;;;;;;;;;12.44;66.11;96650.47;30001;983;1829;-60
2022/05/25 02:05:40;;;;;;;;;;;;;;;12.46;66.07;96658.31;30001;983;1877;-59
2022/05/25 02:06:22;;;;;;;;;;;;;;;12.46;66.30;96653.66;30001;983;1881;-60
2022/05/25 02:07:14;;;;;;;;;;;;;;;12.46;65.89;96652.88;30001;982;1877;-59
2022/05/25 02:07:56;;;;;;;;;;;;;;;12.45;65.64;96657.50;30001;982;1868;-59
2022/05/25 02:08:38;;;;;;;;;;;;;;;12.46;65.84;96661.84;30001;982;1869;-59
2022/05/25 02:09:27;;;;;;;;;;;;;;;12.45;66.17;96660.22;30001;982;1882;-58
2022/05/25 02:10:14;;;;;;;;;;;;;;;12.46;65.98;96664.56;30001;983;1868;-59
2022/05/25 02:11:00;;;;;;;;;;;;;;;12.46;65.50;96653.66;30001;956;1908;-60
2022/05/25 02:11:42;;;;;;;;;;;;;;;12.45;65.54;96654.78;30001;983;1877;-60
2022/05/25 02:12:44;;;;;;;;;;;;;;;12.49;65.85;96663.09;30001;983;1881;-59
2022/05/25 02:13:26;;;;;;;;;;;;;;;12.47;66.67;96655.28;30001;983;1860;-59
2022/05/25 02:14:15;;;;;;;;;;;;;;;12.44;66.06;96661.34;30001;983;1873;-59
2022/05/25 02:14:57;;;;;;;;;;;;;;;12.43;66.31;96657.00;30001;982;1869;-59
2022/05/25 02:15:53;;;;;;;;;;;;;;;12.43;66.26;96662.44;30001;982;1882;-60
2022/05/25 02:16:36;;;;;;;;;;;;;;;12.43;66.30;96659.72;30001;982;1873;-60
2022/05/25 02:17:11;;;;;;;;;;;;;;;12.42;66.44;96655.41;30001;982;1869;-59
2022/05/25 02:18:02;;;;;;;;;;;;;;;12.41;66.30;96657.31;30001;983;1868;-59
2022/05/25 02:18:36;;;;;;;;;;;;;;;12.41;66.11;96661.97;30001;983;1881;-58
2022/05/25 02:19:20;;;;;;;;;;;;;;;12.41;66.16;96651.88;30001;983;1877;-59
2022/05/25 02:20:09;;;;;;;;;;;;;;;12.41;66.17;96656.50;30001;983;1881;-59
2022/05/25 02:21:03;;;;;;;;;;;;;;;12.40;65.71;96660.34;30001;983;1877;-59
2022/05/25 02:21:43;;;;;;;;;;;;;;;12.34;66.07;96654.22;30001;983;1877;-58
2022/05/25 02:22:20;;;;;;;;;;;;;;;12.34;65.76;96656.94;30001;982;1864;-59
2022/05/25 02:22:56;;;;;;;;;;;;;;;12.35;65.87;96658.56;30001;982;1873;-58
2022/05/25 02:23:50;;;;;;;;;;;;;;;12.37;65.61;96655.53;30001;982;1878;-59
2022/05/25 02:24:30;;;;;;;;;;;;;;;12.37;66.22;96656.31;30001;982;1878;-59
2022/05/25 02:25:04;;;;;;;;;;;;;;;12.38;66.08;96662.56;30001;983;1877;-59
2022/05/25 02:26:02;;;;;;;;;;;;;;;12.37;66.37;96660.97;30001;983;1881;-60
2022/05/25 02:26:41;;;;;;;;;;;;;;;12.35;66.16;96653.13;30001;983;1873;-60
2022/05/25 02:27:18;;;;;;;;;;;;;;;12.35;66.17;96658.56;30001;983;1881;-59
2022/05/25 02:27:56;;;;;;;;;;;;;;;12.35;66.31;96655.84;30001;983;1864;-60
2022/05/25 02:28:31;;;;;;;;;;;;;;;12.34;66.01;96651.50;30001;983;1873;-59
2022/05/25 02:29:20;;;;;;;;;;;;;;;12.35;66.06;96652.31;30001;983;1877;-60
2022/05/25 02:29:56;;;;;;;;;;;;;;;12.35;66.90;96652.31;30001;977;1886;-59
2022/05/25 02:30:30;;;;;;;;;;;;;;;12.34;66.76;96650.69;30001;982;1877;-60
2022/05/25 02:31:04;;;;;;;;;;;;;;;12.34;67.01;96654.22;30001;982;1882;-61
2022/05/25 02:31:40;;;;;;;;;;;;;;;12.33;67.44;96654.53;30001;982;1878;-59
2022/05/25 02:32:17;;;;;;;;;;;;;;;12.33;67.00;96654.53;30001;983;1881;-59
2022/05/25 02:32:53;;;;;;;;;;;;;;;12.32;66.86;96650.19;30001;983;1864;-61
2022/05/25 02:33:27;;;;;;;;;;;;;;;12.31;67.36;96649.41;30001;983;1873;-58
2022/05/25 02:34:02;;;;;;;;;;;;;;;12.31;66.90;96641.25;30001;983;1877;-59
2022/05/25 02:34:33;;;;;;;;;;;;;;;12.32;67.67;96652.91;30001;983;1881;-59
2022/05/25 02:35:05;;;;;;;;;;;;;;;12.31;67.94;96651.31;30001;983;1877;-55
2022/05/25 02:35:39;;;;;;;;;;;;;;;12.29;67.85;96653.53;30001;983;1882;-56
2022/05/25 02:36:11;;;;;;;;;;;;;;;12.29;67.74;96653.53;30001;983;1877;-59
2022/05/25 02:36:43;;;;;;;;;;;;;;;12.28;67.52;96654.66;30001;982;1868;-59
2022/05/25 02:37:16;;;;;;;;;;;;;;;12.29;67.08;96656.25;30001;982;1869;-59
2022/05/25 02:37:48;;;;;;;;;;;;;;;12.27;66.73;96659.28;30001;982;1881;-55
2022/05/25 02:38:20;;;;;;;;;;;;;;;12.25;66.44;96658.00;30001;982;1864;-59
2022/05/25 02:38:51;;;;;;;;;;;;;;;12.21;66.95;96659.72;30001;982;1873;-59
2022/05/25 02:39:22;;;;;;;;;;;;;;;12.19;66.54;96659.22;30001;983;1876;-59
2022/05/25 02:39:54;;;;;;;;;;;;;;;12.17;66.88;96656.81;30001;983;1881;-60
2022/05/25 02:40:26;;;;;;;;;;;;;;;12.17;66.94;96658.72;30001;983;1877;-59
2022/05/25 02:41:12;;;;;;;;;;;;;;;12.15;66.33;96659.03;30001;983;1881;-55
2022/05/25 02:41:48;;;;;;;;;;;;;;;12.15;66.90;96663.66;30001;983;1877;-59
2022/05/25 02:42:19;;;;;;;;;;;;;;;12.14;67.25;96662.06;30001;983;1881;-60
2022/05/25 02:42:49;;;;;;;;;;;;;;;12.14;66.71;96654.69;30001;983;1877;-59
2022/05/25 02:43:20;;;;;;;;;;;;;;;12.13;66.85;96665.91;30001;983;1868;-58
2022/05/25 02:43:51;;;;;;;;;;;;;;;12.12;66.78;96664.31;30001;983;1869;-60
2022/05/25 02:44:22;;;;;;;;;;;;;;;12.12;66.74;96669.75;30001;982;1882;-59
2022/05/25 02:44:53;;;;;;;;;;;;;;;12.12;66.52;96664.31;30001;982;1877;-55
2022/05/25 02:45:24;;;;;;;;;;;;;;;12.13;67.01;96668.63;30001;982;1882;-59
2022/05/25 02:45:54;;;;;;;;;;;;;;;12.14;65.78;96662.06;30001;982;1878;-59
2022/05/25 02:46:25;;;;;;;;;;;;;;;12.14;66.29;96670.22;30001;982;1882;-59
2022/05/25 02:46:56;;;;;;;;;;;;;;;12.15;65.94;96669.09;30001;983;1877;-58
2022/05/25 02:47:29;;;;;;;;;;;;;;;12.16;66.29;96668.00;30001;983;1881;-59
2022/05/25 02:48:00;;;;;;;;;;;;;;;12.17;66.78;96677.75;30001;983;1863;-60
2022/05/25 02:48:31;;;;;;;;;;;;;;;12.16;66.98;96671.50;30001;983;1872;-58
2022/05/25 02:49:02;;;;;;;;;;;;;;;12.20;65.82;96666.25;30001;983;1877;-59
2022/05/25 02:49:33;;;;;;;;;;;;;;;12.20;65.78;96666.25;30001;983;1881;-60
2022/05/25 02:50:06;;;;;;;;;;;;;;;12.19;65.38;96664.66;30001;983;1877;-59
2022/05/25 02:50:37;;;;;;;;;;;;;;;12.19;65.12;96659.22;30001;983;1882;-59
2022/05/25 02:51:08;;;;;;;;;;;;;;;12.18;64.83;96657.59;30001;982;1877;-59
2022/05/25 02:51:38;;;;;;;;;;;;;;;12.14;64.78;96659.34;30001;982;1882;-59
2022/05/25 02:52:10;;;;;;;;;;;;;;;12.13;65.33;96663.19;30001;982;1864;-60
2022/05/25 02:52:41;;;;;;;;;;;;;;;12.11;65.30;96662.69;30001;982;1873;-59
2022/05/25 02:53:12;;;;;;;;;;;;;;;12.11;65.21;96660.78;30001;982;1844;-59
2022/05/25 02:53:44;;;;;;;;;;;;;;;12.08;65.69;96664.91;30001;982;1882;-59
2022/05/25 02:54:15;;;;;;;;;;;;;;;12.10;65.43;96666.53;30001;982;1878;-59
2022/05/25 02:54:46;;;;;;;;;;;;;;;12.08;65.88;96667.63;30001;983;1881;-60
2022/05/25 02:55:18;;;;;;;;;;;;;;;12.07;65.69;96667.94;30001;983;1877;-60
2022/05/25 02:55:49;;;;;;;;;;;;;;;12.06;66.55;96667.12;30001;983;1868;-60
2022/05/25 02:56:20;;;;;;;;;;;;;;;12.04;66.28;96663.91;30001;983;1868;-59
2022/05/25 02:56:51;;;;;;;;;;;;;;;12.02;65.99;96662.63;30001;983;1868;-60
2022/05/25 02:57:22;;;;;;;;;;;;;;;12.00;66.23;96668.38;30001;983;1868;-59
2022/05/25 02:57:53;;;;;;;;;;;;;;;12.00;65.99;96670.28;30001;983;1868;-60
2022/05/25 02:58:24;;;;;;;;;;;;;;;12.01;65.85;96667.25;30001;983;1868;-59
2022/05/25 02:58:55;;;;;;;;;;;;;;;12.03;65.23;96670.47;30001;982;1881;-59
2022/05/25 02:59:26;;;;;;;;;;;;;;;12.03;65.85;96670.47;30001;982;1877;-55
2022/05/25 02:59:56;;;;;;;;;;;;;;;12.03;65.75;96667.75;30001;982;1882;-61
2022/05/25 03:00:27;;;;;;;;;;;;;;;12.04;65.89;96669.34;30001;982;1877;-59
2022/05/25 03:00:58;;;;;;;;;;;;;;;12.04;65.94;96669.34;30001;982;1882;-57
2022/05/25 03:01:29;;;;;;;;;;;;;;;12.01;65.72;96675.41;30001;982;1878;-58
2022/05/25 03:02:04;;;;;;;;;;;;;;;12.02;66.56;96674.31;30001;983;1868;-59
2022/05/25 03:02:36;;;;;;;;;;;;;;;12.00;66.67;96679.25;30001;983;1868;-59
2022/05/25 03:03:06;;;;;;;;;;;;;;;12.00;66.20;96676.53;30001;983;1881;-59
2022/05/25 03:03:38;;;;;;;;;;;;;;;12.01;66.54;96686.28;30001;983;1877;-59
2022/05/25 03:04:08;;;;;;;;;;;;;;;12.00;66.50;96679.25;30001;983;1881;-58
2022/05/25 03:04:42;;;;;;;;;;;;;;;12.01;66.30;96682.75;30001;983;1864;-55
2022/05/25 03:05:13;;;;;;;;;;;;;;;12.01;66.20;96685.47;30001;983;1873;-59
2022/05/25 03:05:44;;;;;;;;;;;;;;;12.01;66.02;96683.56;30001;985;1877;-58
2022/05/25 03:06:15;;;;;;;;;;;;;;;12.01;66.38;96685.47;30001;971;1902;-58
2022/05/25 03:06:45;;;;;;;;;;;;;;;12.00;66.16;96687.41;30001;982;1877;-61
2022/05/25 03:07:17;;;;;;;;;;;;;;;12.01;66.94;96689.00;30001;982;1882;-59
2022/05/25 03:07:47;;;;;;;;;;;;;;;12.01;66.97;96690.91;30001;982;1878;-60
2022/05/25 03:08:18;;;;;;;;;;;;;;;12.00;66.65;96678.44;30001;982;1882;-59
2022/05/25 03:08:49;;;;;;;;;;;;;;;11.98;67.37;96692.34;30001;982;1877;-56
2022/05/25 03:09:20;;;;;;;;;;;;;;;11.97;67.69;96690.72;30001;982;1869;-59
2022/05/25 03:09:51;;;;;;;;;;;;;;;11.96;67.62;96682.88;30001;983;1868;-59
2022/05/25 03:10:22;;;;;;;;;;;;;;;11.96;67.42;96688.31;30001;983;1881;-59
2022/05/25 03:10:53;;;;;;;;;;;;;;;11.95;67.52;96682.06;30001;983;1877;-59
2022/05/25 03:11:24;;;;;;;;;;;;;;;11.94;67.39;96680.47;30001;983;1881;-59
2022/05/25 03:11:55;;;;;;;;;;;;;;;11.93;67.61;96684.28;30001;983;1877;-59
2022/05/25 03:12:27;;;;;;;;;;;;;;;11.95;67.51;96681.25;30001;983;1881;-59
2022/05/25 03:12:59;;;;;;;;;;;;;;;11.94;67.56;96683.19;30001;983;1877;-59
2022/05/25 03:13:30;;;;;;;;;;;;;;;11.92;67.63;96682.69;30001;983;1882;-59
2022/05/25 03:14:01;;;;;;;;;;;;;;;11.93;68.14;96680.75;30001;982;1864;-60
2022/05/25 03:14:32;;;;;;;;;;;;;;;11.92;67.96;96677.25;30001;982;1860;-59
2022/05/25 03:15:05;;;;;;;;;;;;;;;11.91;68.62;96672.09;30001;982;1877;-59
2022/05/25 03:15:36;;;;;;;;;;;;;;;11.91;67.77;96678.34;30001;982;1882;-59